createdAt,value
2018-03-08T00:02:01.729Z,95.10
2018-03-08T00:04:34.666Z,95.20
2018-03-08T00:07:07.364Z,94.90
2018-03-08T00:09:39.119Z,94.90
2018-03-08T00:12:18.485Z,94.90
2018-03-08T00:14:53.019Z,94.90
2018-03-08T00:17:26.071Z,94.80
2018-03-08T00:19:56.818Z,94.80
2018-03-08T00:22:27.786Z,95.00
2018-03-08T00:24:58.735Z,95.10
2018-03-08T00:27:30.469Z,94.70
2018-03-08T00:30:02.975Z,95.10
2018-03-08T00:32:40.978Z,94.70
2018-03-08T00:35:12.192Z,94.10
2018-03-08T00:37:44.436Z,94.30
2018-03-08T00:40:16.030Z,93.80
2018-03-08T00:42:47.962Z,94.00
2018-03-08T00:45:18.815Z,94.20
2018-03-08T00:47:50.442Z,93.80
2018-03-08T00:50:21.453Z,93.80
2018-03-08T00:52:52.347Z,93.80
2018-03-08T00:55:22.759Z,93.50
2018-03-08T00:57:53.642Z,93.60
2018-03-08T01:00:25.947Z,93.40
2018-03-08T01:02:57.668Z,92.90
2018-03-08T01:05:30.101Z,93.00
2018-03-08T01:08:01.313Z,93.30
2018-03-08T01:10:32.356Z,93.10
2018-03-08T01:13:02.647Z,93.10
2018-03-08T01:15:32.974Z,93.00
2018-03-08T01:18:04.011Z,92.90
2018-03-08T01:20:33.954Z,93.00
2018-03-08T01:23:04.720Z,93.20
2018-03-08T01:25:34.711Z,93.30
2018-03-08T01:28:06.655Z,93.30
2018-03-08T01:30:37.952Z,93.20
2018-03-08T01:33:08.115Z,93.20
2018-03-08T01:35:42.403Z,93.30
2018-03-08T01:38:13.249Z,93.30
2018-03-08T01:40:43.478Z,93.40
2018-03-08T01:43:13.237Z,93.20
2018-03-08T01:45:43.167Z,93.40
2018-03-08T01:48:13.485Z,93.30
2018-03-08T01:50:43.283Z,93.30
2018-03-08T01:53:14.227Z,93.30
2018-03-08T01:55:44.995Z,93.10
2018-03-08T01:58:14.648Z,93.10
2018-03-08T02:00:45.775Z,93.00
2018-03-08T02:03:15.176Z,93.00
2018-03-08T02:05:44.775Z,93.10
2018-03-08T02:08:14.792Z,93.10
2018-03-08T02:10:44.524Z,93.00
2018-03-08T02:13:14.001Z,92.80
2018-03-08T02:15:44.383Z,93.00
2018-03-08T02:18:16.492Z,93.10
2018-03-08T02:20:49.052Z,92.90
2018-03-08T02:23:20.688Z,93.00
2018-03-08T02:25:50.184Z,92.90
2018-03-08T02:28:19.845Z,92.90
2018-03-08T02:30:49.310Z,92.90
2018-03-08T02:33:25.766Z,92.80
2018-03-08T02:36:15.521Z,92.90
2018-03-08T02:39:00.496Z,92.90
2018-03-08T02:41:29.959Z,92.90
2018-03-08T02:43:59.375Z,92.90
2018-03-08T02:46:28.700Z,92.80
2018-03-08T02:48:58.412Z,92.90
2018-03-08T02:51:28.467Z,92.90
2018-03-08T02:53:58.068Z,92.90
2018-03-08T02:56:27.635Z,92.90
2018-03-08T02:59:01.857Z,93.10
2018-03-08T03:01:31.911Z,93.10
2018-03-08T03:04:10.104Z,93.10
2018-03-08T03:06:41.405Z,93.10
2018-03-08T03:09:11.236Z,93.10
2018-03-08T03:11:42.837Z,93.10
2018-03-08T03:14:12.203Z,93.00
2018-03-08T03:16:41.956Z,93.10
2018-03-08T03:19:11.473Z,93.10
2018-03-08T03:21:42.223Z,93.10
2018-03-08T03:24:11.676Z,93.10
2018-03-08T03:26:43.413Z,93.10
2018-03-08T03:29:12.979Z,93.10
2018-03-08T03:31:43.510Z,93.30
2018-03-08T03:34:13.767Z,93.30
2018-03-08T03:36:43.528Z,93.20
2018-03-08T03:39:13.025Z,93.10
2018-03-08T03:41:43.618Z,93.10
2018-03-08T03:44:13.914Z,93.10
2018-03-08T03:46:48.495Z,93.20
2018-03-08T03:49:17.873Z,93.30
2018-03-08T03:51:57.785Z,93.70
2018-03-08T03:54:27.966Z,93.70
2018-03-08T03:56:57.333Z,93.60
2018-03-08T03:59:26.842Z,93.50
2018-03-08T04:01:56.297Z,93.60
2018-03-08T04:04:26.084Z,93.50
2018-03-08T04:06:55.464Z,93.40
2018-03-08T04:09:24.972Z,93.40
2018-03-08T04:11:56.194Z,93.30
2018-03-08T04:14:25.982Z,93.50
2018-03-08T04:16:55.624Z,93.50
2018-03-08T04:19:25.592Z,93.70
2018-03-08T04:21:55.689Z,93.70
2018-03-08T04:24:25.214Z,93.80
2018-03-08T04:26:55.115Z,93.70
2018-03-08T04:29:24.970Z,93.60
2018-03-08T04:31:54.854Z,93.50
2018-03-08T04:34:24.529Z,93.50
2018-03-08T04:36:54.684Z,93.30
2018-03-08T04:39:24.415Z,93.10
2018-03-08T04:41:54.543Z,93.00
2018-03-08T04:44:24.651Z,93.20
2018-03-08T04:46:54.254Z,93.10
2018-03-08T04:49:23.780Z,93.10
2018-03-08T04:51:53.524Z,92.90
2018-03-08T04:54:23.389Z,92.80
2018-03-08T04:56:54.016Z,92.80
2018-03-08T04:59:23.642Z,92.80
2018-03-08T05:01:54.552Z,92.90
2018-03-08T05:04:24.175Z,92.90
2018-03-08T05:06:53.688Z,93.10
2018-03-08T05:09:23.292Z,93.10
2018-03-08T05:11:52.835Z,93.20
2018-03-08T05:14:22.955Z,93.10
2018-03-08T05:16:53.125Z,93.10
2018-03-08T05:19:24.359Z,93.10
2018-03-08T05:21:54.095Z,93.10
2018-03-08T05:24:23.622Z,93.20
2018-03-08T05:26:54.479Z,93.10
2018-03-08T05:29:24.221Z,93.10
2018-03-08T05:31:54.267Z,93.10
2018-03-08T05:34:25.089Z,93.00
2018-03-08T05:36:56.938Z,92.90
2018-03-08T05:39:28.033Z,92.80
2018-03-08T05:41:58.593Z,92.80
2018-03-08T05:44:29.515Z,92.80
2018-03-08T05:47:00.138Z,92.80
2018-03-08T05:49:30.764Z,92.80
2018-03-08T05:52:01.127Z,93.00
2018-03-08T05:54:32.105Z,93.20
2018-03-08T05:57:02.451Z,93.20
2018-03-08T05:59:32.660Z,93.50
2018-03-08T06:02:03.432Z,93.30
2018-03-08T06:04:34.433Z,93.30
2018-03-08T06:07:05.073Z,93.30
2018-03-08T06:09:35.983Z,93.00
2018-03-08T06:12:06.461Z,92.90
2018-03-08T06:14:42.448Z,92.80
2018-03-08T06:17:13.097Z,92.70
2018-03-08T06:19:43.748Z,92.70
2018-03-08T06:22:19.349Z,92.60
2018-03-08T06:24:50.722Z,92.60
2018-03-08T06:27:21.342Z,92.60
2018-03-08T06:29:52.066Z,92.50
2018-03-08T06:32:23.189Z,92.40
2018-03-08T06:34:54.917Z,92.30
2018-03-08T06:37:26.439Z,92.40
2018-03-08T06:40:06.450Z,92.40
2018-03-08T06:42:47.224Z,92.20
2018-03-08T06:45:23.382Z,92.20
2018-03-08T06:47:53.826Z,92.20
2018-03-08T06:50:24.981Z,92.20
2018-03-08T06:52:57.683Z,92.10
2018-03-08T06:55:28.683Z,92.00
2018-03-08T06:57:59.720Z,92.00
2018-03-08T07:00:30.606Z,92.00
2018-03-08T07:03:00.863Z,91.90
2018-03-08T07:05:31.342Z,91.90
2018-03-08T07:08:03.189Z,91.70
2018-03-08T07:10:34.438Z,91.40
2018-03-08T07:13:05.693Z,91.10
2018-03-08T07:15:36.713Z,91.10
2018-03-08T07:18:08.773Z,90.80
2018-03-08T07:20:39.761Z,90.80
2018-03-08T07:23:10.843Z,91.00
2018-03-08T07:25:41.438Z,90.90
2018-03-08T07:28:12.009Z,90.70
2018-03-08T07:30:45.177Z,90.30
2018-03-08T07:33:15.876Z,90.30
2018-03-08T07:35:46.326Z,90.30
2018-03-08T07:38:17.931Z,90.50
2018-03-08T07:40:49.381Z,90.50
2018-03-08T07:43:35.084Z,90.60
2018-03-08T07:46:15.778Z,90.60
2018-03-08T07:48:52.593Z,90.60
2018-03-08T07:51:23.062Z,90.40
2018-03-08T07:53:53.276Z,90.80
2018-03-08T07:56:26.071Z,90.50
2018-03-08T07:58:57.292Z,90.40
2018-03-08T08:01:32.082Z,90.30
2018-03-08T08:04:02.705Z,90.30
2018-03-08T08:06:44.524Z,90.10
2018-03-08T08:09:15.577Z,90.00
2018-03-08T08:11:46.867Z,87.10
2018-03-08T08:14:22.741Z,87.00
2018-03-08T08:16:55.185Z,84.70
2018-03-08T08:19:27.354Z,85.00
2018-03-08T08:21:58.331Z,83.70
2018-03-08T08:24:28.834Z,84.00
2018-03-08T08:27:00.083Z,84.30
2018-03-08T08:29:32.343Z,84.70
2018-03-08T08:32:02.697Z,84.90
2018-03-08T08:34:33.451Z,84.70
2018-03-08T08:37:04.768Z,84.40
2018-03-08T08:39:34.765Z,84.20
2018-03-08T08:42:05.518Z,84.60
2018-03-08T08:44:39.207Z,84.60
2018-03-08T08:47:10.409Z,85.00
2018-03-08T08:49:41.220Z,84.70
2018-03-08T08:52:11.819Z,84.50
2018-03-08T08:54:43.554Z,85.10
2018-03-08T08:57:18.290Z,84.90
2018-03-08T08:59:53.077Z,84.40
2018-03-08T09:02:23.611Z,84.10
2018-03-08T09:04:53.753Z,83.30
2018-03-08T09:07:25.850Z,83.10
2018-03-08T09:09:56.002Z,83.10
2018-03-08T09:12:26.721Z,83.00
2018-03-08T09:14:56.880Z,83.20
2018-03-08T09:17:28.587Z,83.10
2018-03-08T09:20:03.493Z,83.10
2018-03-08T09:22:35.271Z,83.40
2018-03-08T09:25:08.003Z,83.40
2018-03-08T09:27:44.555Z,83.00
2018-03-08T09:30:19.234Z,82.70
2018-03-08T09:32:52.979Z,81.30
2018-03-08T09:35:22.940Z,81.10
2018-03-08T09:37:53.074Z,80.80
2018-03-08T09:40:23.407Z,80.80
2018-03-08T09:42:53.988Z,80.60
2018-03-08T09:45:24.615Z,80.10
2018-03-08T09:47:55.731Z,79.10
2018-03-08T09:50:25.896Z,79.30
2018-03-08T09:52:56.156Z,78.50
2018-03-08T09:55:26.539Z,78.20
2018-03-08T09:57:58.705Z,77.70
2018-03-08T10:00:28.801Z,76.70
2018-03-08T10:03:00.288Z,77.20
2018-03-08T10:05:33.949Z,77.60
2018-03-08T10:08:05.185Z,77.20
2018-03-08T10:10:36.344Z,77.10
2018-03-08T10:13:07.627Z,78.30
2018-03-08T10:15:37.837Z,77.90
2018-03-08T10:18:08.963Z,77.20
2018-03-08T10:20:39.327Z,77.20
2018-03-08T10:23:09.296Z,75.10
2018-03-08T10:25:44.977Z,74.90
2018-03-08T10:28:15.387Z,76.00
2018-03-08T10:30:45.701Z,76.50
2018-03-08T10:33:17.402Z,76.80
2018-03-08T10:35:48.770Z,75.20
2018-03-08T10:38:19.031Z,75.20
2018-03-08T10:40:51.590Z,72.40
2018-03-08T10:43:23.101Z,72.20
2018-03-08T10:45:54.435Z,71.90
2018-03-08T10:48:24.947Z,71.90
2018-03-08T10:50:55.961Z,72.20
2018-03-08T10:53:26.575Z,69.90
2018-03-08T10:55:56.609Z,65.30
2018-03-08T10:58:27.469Z,60.20
2018-03-08T11:00:57.852Z,61.80
2018-03-08T11:03:32.502Z,67.40
2018-03-08T11:06:09.121Z,69.40
2018-03-08T11:08:40.077Z,72.80
2018-03-08T11:11:10.757Z,72.00
2018-03-08T11:13:42.271Z,72.90
2018-03-08T11:16:13.295Z,71.90
2018-03-08T11:18:43.648Z,71.10
2018-03-08T11:21:17.892Z,70.40
2018-03-08T11:23:51.427Z,69.20
2018-03-08T11:26:25.640Z,70.60
2018-03-08T11:29:06.584Z,70.70
2018-03-08T11:31:42.304Z,71.60
2018-03-08T11:34:14.397Z,70.90
2018-03-08T11:36:45.138Z,71.90
2018-03-08T11:39:16.097Z,72.30
2018-03-08T11:41:46.761Z,72.90
2018-03-08T11:44:27.259Z,73.20
2018-03-08T11:47:05.623Z,73.00
2018-03-08T11:49:37.710Z,73.10
2018-03-08T11:52:07.863Z,72.70
2018-03-08T11:54:38.103Z,71.70
2018-03-08T11:57:08.383Z,70.10
2018-03-08T11:59:38.500Z,69.20
2018-03-08T12:02:10.475Z,69.00
2018-03-08T12:04:47.682Z,68.60
2018-03-08T12:07:26.271Z,68.80
2018-03-08T12:09:58.266Z,68.70
2018-03-08T12:12:29.248Z,68.10
2018-03-08T12:15:02.331Z,68.10
2018-03-08T12:17:33.553Z,68.40
2018-03-08T12:20:05.235Z,68.30
2018-03-08T12:22:37.707Z,67.50
2018-03-08T12:25:08.588Z,67.40
2018-03-08T12:27:41.374Z,67.50
2018-03-08T12:30:12.769Z,68.10
2018-03-08T12:32:45.994Z,68.00
2018-03-08T12:35:32.708Z,68.20
2018-03-08T12:38:07.150Z,68.30
2018-03-08T12:40:38.238Z,68.20
2018-03-08T12:43:08.338Z,68.10
2018-03-08T12:45:38.402Z,68.60
2018-03-08T12:48:08.546Z,69.30
2018-03-08T12:51:03.433Z,69.10
2018-03-08T12:53:38.749Z,70.80
2018-03-08T12:56:11.817Z,70.40
2018-03-08T12:58:41.780Z,70.20
2018-03-08T13:01:12.089Z,70.60
2018-03-08T13:03:42.136Z,70.90
2018-03-08T13:06:17.534Z,70.90
2018-03-08T13:08:56.646Z,70.80
2018-03-08T13:11:28.144Z,71.70
2018-03-08T13:13:58.351Z,71.60
2018-03-08T13:16:29.274Z,72.10
2018-03-08T13:19:01.003Z,72.50
2018-03-08T13:21:30.812Z,72.60
2018-03-08T13:24:01.573Z,72.70
2018-03-08T13:26:31.585Z,72.40
2018-03-08T13:29:04.313Z,74.20
2018-03-08T13:31:34.605Z,74.20
2018-03-08T13:34:06.041Z,74.60
2018-03-08T13:36:41.841Z,74.60
2018-03-08T13:39:19.317Z,74.50
2018-03-08T13:41:49.949Z,73.20
2018-03-08T13:44:21.140Z,72.60
2018-03-08T13:46:51.151Z,72.60
2018-03-08T13:49:30.613Z,72.70
2018-03-08T13:52:09.323Z,73.40
2018-03-08T13:54:47.393Z,76.10
2018-03-08T13:57:19.124Z,84.20
2018-03-08T13:59:53.244Z,88.10
2018-03-08T14:02:24.323Z,88.10
2018-03-08T14:04:57.811Z,89.90
2018-03-08T14:07:30.121Z,91.10
2018-03-08T14:10:06.127Z,92.30
2018-03-08T14:12:38.630Z,92.20
2018-03-08T14:15:10.058Z,92.20
2018-03-08T14:17:40.912Z,92.70
2018-03-08T14:20:11.946Z,93.40
2018-03-08T14:22:42.587Z,93.20
2018-03-08T14:25:13.997Z,92.20
2018-03-08T14:27:46.440Z,92.20
2018-03-08T14:30:16.813Z,91.60
2018-03-08T14:32:47.473Z,91.30
2018-03-08T14:35:19.828Z,91.00
2018-03-08T14:37:54.004Z,91.70
2018-03-08T14:40:25.101Z,92.00
2018-03-08T14:42:55.216Z,92.20
2018-03-08T14:45:25.581Z,92.30
2018-03-08T14:47:56.540Z,92.40
2018-03-08T14:50:27.455Z,92.40
2018-03-08T14:52:59.035Z,92.60
2018-03-08T14:55:29.235Z,92.60
2018-03-08T14:58:01.053Z,91.90
2018-03-08T15:00:31.002Z,91.80
2018-03-08T15:03:03.112Z,92.30
2018-03-08T15:05:33.342Z,92.40
2018-03-08T15:08:08.645Z,93.30
2018-03-08T15:10:39.614Z,94.10
2018-03-08T15:13:09.717Z,94.10
2018-03-08T15:15:39.846Z,93.80
2018-03-08T15:18:18.563Z,94.30
2018-03-08T15:20:50.054Z,94.20
2018-03-08T15:23:20.075Z,94.20
2018-03-08T15:25:51.333Z,93.50
2018-03-08T15:28:21.430Z,93.90
2018-03-08T15:30:51.794Z,94.20
2018-03-08T15:33:22.154Z,94.60
2018-03-08T15:35:53.064Z,95.20
2018-03-08T15:38:24.445Z,95.70
2018-03-08T15:40:54.369Z,95.70
2018-03-08T15:43:24.439Z,96.20
2018-03-08T15:45:54.410Z,96.70
2018-03-08T15:48:32.984Z,97.10
2018-03-08T15:51:03.522Z,97.50
2018-03-08T15:53:36.299Z,97.80
2018-03-08T15:56:06.951Z,97.70
2018-03-08T15:58:36.950Z,97.40
2018-03-08T16:01:07.152Z,97.80
2018-03-08T16:03:41.351Z,96.90
2018-03-08T16:06:13.150Z,97.30
2018-03-08T16:08:51.812Z,97.40
2018-03-08T16:11:23.533Z,97.10
2018-03-08T16:13:57.385Z,96.60
2018-03-08T16:16:28.423Z,96.60
2018-03-08T16:19:10.200Z,96.60
2018-03-08T16:21:51.360Z,96.60
2018-03-08T16:24:24.102Z,96.10
2018-03-08T16:26:54.196Z,95.90
2018-03-08T16:29:27.945Z,95.50
2018-03-08T16:32:01.532Z,95.20
2018-03-08T16:34:32.445Z,95.10
2018-03-08T16:37:02.664Z,95.20
2018-03-08T16:39:32.874Z,95.00
2018-03-08T16:42:02.983Z,94.80
2018-03-08T16:44:34.108Z,94.90
2018-03-08T16:47:05.168Z,94.50
2018-03-08T16:49:35.491Z,94.40
2018-03-08T16:52:05.549Z,94.40
2018-03-08T16:54:36.931Z,94.30
2018-03-08T16:57:08.663Z,93.80
2018-03-08T16:59:38.906Z,93.20
2018-03-08T17:02:09.851Z,93.00
2018-03-08T17:04:40.137Z,92.90
2018-03-08T17:07:12.205Z,92.10
2018-03-08T17:09:45.656Z,92.40
2018-03-08T17:12:16.541Z,92.50
2018-03-08T17:14:46.460Z,91.60
2018-03-08T17:17:16.480Z,91.20
2018-03-08T17:19:47.552Z,91.20
2018-03-08T17:22:18.408Z,91.00
2018-03-08T17:24:48.189Z,90.90
2018-03-08T17:27:18.973Z,90.10
2018-03-08T17:29:49.626Z,90.10
2018-03-08T17:32:19.996Z,90.50
2018-03-08T17:34:51.537Z,90.00
2018-03-08T17:37:24.616Z,90.20
2018-03-08T17:39:57.527Z,90.20
2018-03-08T17:42:27.952Z,90.20
2018-03-08T17:45:00.158Z,90.50
2018-03-08T17:47:33.756Z,90.40
2018-03-08T17:50:04.553Z,90.40
2018-03-08T17:52:34.858Z,90.30
2018-03-08T17:55:09.826Z,90.50
2018-03-08T17:57:52.664Z,90.70
2018-03-08T18:00:30.822Z,91.10
2018-03-08T18:03:03.376Z,91.00
2018-03-08T18:05:34.907Z,91.10
2018-03-08T18:08:07.246Z,91.00
2018-03-08T18:10:37.537Z,91.00
2018-03-08T18:13:08.129Z,91.00
2018-03-08T18:15:38.960Z,91.20
2018-03-08T18:18:11.131Z,91.20
2018-03-08T18:20:42.812Z,91.50
2018-03-08T18:23:16.645Z,91.30
2018-03-08T18:25:47.420Z,91.30
2018-03-08T18:28:20.012Z,91.50
2018-03-08T18:30:52.654Z,91.30
2018-03-08T18:33:39.328Z,91.10
2018-03-08T18:36:20.635Z,91.00
2018-03-08T18:38:50.978Z,91.40
2018-03-08T18:41:21.187Z,91.50
2018-03-08T18:43:52.870Z,91.30
2018-03-08T18:46:23.660Z,91.30
2018-03-08T18:48:57.320Z,91.40
2018-03-08T18:51:29.948Z,91.40
2018-03-08T18:54:08.505Z,91.50
2018-03-08T18:56:44.648Z,91.60
2018-03-08T18:59:21.853Z,91.30
2018-03-08T19:01:57.682Z,91.30
2018-03-08T19:04:28.199Z,91.00
2018-03-08T19:07:02.849Z,91.10
2018-03-08T19:09:45.719Z,91.20
2018-03-08T19:12:26.170Z,91.30
2018-03-08T19:14:59.878Z,91.50
2018-03-08T19:17:33.882Z,91.30
2018-03-08T19:20:11.090Z,91.20
2018-03-08T19:22:41.971Z,91.30
2018-03-08T19:25:14.328Z,91.20
2018-03-08T19:28:00.777Z,91.20
2018-03-08T19:30:38.990Z,91.20
2018-03-08T19:33:13.928Z,91.10
2018-03-08T19:35:46.170Z,91.30
2018-03-08T19:38:17.280Z,91.50
2018-03-08T19:40:47.597Z,91.00
2018-03-08T19:43:17.802Z,90.70
2018-03-08T19:45:48.045Z,90.40
2018-03-08T19:48:23.274Z,90.40
2018-03-08T19:50:56.673Z,90.40
2018-03-08T19:53:27.133Z,90.20
2018-03-08T19:56:04.182Z,90.20
2018-03-08T19:58:40.526Z,90.20
2018-03-08T20:01:14.686Z,90.30
2018-03-08T20:03:47.398Z,90.40
2018-03-08T20:06:18.420Z,90.10
2018-03-08T20:08:51.721Z,90.40
2018-03-08T20:11:23.780Z,90.40
2018-03-08T20:13:56.723Z,90.30
2018-03-08T20:16:28.909Z,90.30
2018-03-08T20:19:06.160Z,90.60
2018-03-08T20:21:45.391Z,90.60
2018-03-08T20:24:15.752Z,90.40
2018-03-08T20:26:49.515Z,90.50
2018-03-08T20:29:28.185Z,90.40
2018-03-08T20:32:26.516Z,90.40
2018-03-08T20:35:04.847Z,90.40
2018-03-08T20:37:50.323Z,90.30
2018-03-08T20:40:26.357Z,90.30
2018-03-08T20:43:03.430Z,90.40
2018-03-08T20:45:35.440Z,90.40
2018-03-08T20:48:05.896Z,90.40
2018-03-08T20:50:41.669Z,90.50
2018-03-08T20:53:12.990Z,90.50
2018-03-08T20:55:43.528Z,90.50
2018-03-08T20:58:13.865Z,90.50
2018-03-08T21:00:51.400Z,90.50
2018-03-08T21:03:28.659Z,90.30
2018-03-08T21:06:00.247Z,90.50
2018-03-08T21:08:31.492Z,90.50
2018-03-08T21:11:08.043Z,90.40
2018-03-08T21:13:41.904Z,90.70
2018-03-08T21:16:15.280Z,90.30
2018-03-08T21:18:48.815Z,90.40
2018-03-08T21:21:21.159Z,90.20
2018-03-08T21:24:04.654Z,90.30
2018-03-08T21:26:45.158Z,90.40
2018-03-08T21:29:26.471Z,90.40
2018-03-08T21:35:24.589Z,90.30
2018-03-08T21:38:03.468Z,90.30
2018-03-08T21:40:46.052Z,90.30
2018-03-08T21:43:32.415Z,90.30
2018-03-08T21:46:13.360Z,90.30
2018-03-08T21:49:00.443Z,90.20
2018-03-08T21:51:59.123Z,90.10
2018-03-08T21:54:38.349Z,90.10
2018-03-08T21:57:13.412Z,90.00
2018-03-08T21:59:48.638Z,90.10
2018-03-08T22:02:25.003Z,90.00
2018-03-08T22:05:01.084Z,89.70
2018-03-08T22:07:32.454Z,90.00
2018-03-08T22:10:03.886Z,90.00
2018-03-08T22:12:44.307Z,90.00
2018-03-08T22:15:30.293Z,90.10
2018-03-08T22:18:11.740Z,90.30
2018-03-08T22:20:49.079Z,89.80
2018-03-08T22:23:21.718Z,89.80
2018-03-08T22:26:07.336Z,90.10
2018-03-08T22:28:46.405Z,90.20
2018-03-08T22:31:16.565Z,90.30
2018-03-08T22:34:06.100Z,90.60
2018-03-08T22:36:36.392Z,90.60
2018-03-08T22:39:16.262Z,90.50
2018-03-08T22:41:54.353Z,90.50
2018-03-08T22:44:25.041Z,90.80
2018-03-08T22:47:02.979Z,90.90
2018-03-08T22:49:41.360Z,90.70
2018-03-08T22:52:16.998Z,90.80
2018-03-08T22:54:52.185Z,90.80
2018-03-08T22:57:27.013Z,90.90
2018-03-08T23:00:04.014Z,90.70
2018-03-08T23:02:38.600Z,90.70
2018-03-08T23:05:10.801Z,90.80
2018-03-08T23:07:42.411Z,90.70
2018-03-08T23:10:16.833Z,90.80
2018-03-08T23:13:00.918Z,90.70
2018-03-08T23:15:31.960Z,90.60
2018-03-08T23:18:03.315Z,90.60
2018-03-08T23:21:16.197Z,90.60
2018-03-08T23:24:03.251Z,90.70
2018-03-08T23:26:44.560Z,90.60
2018-03-08T23:29:35.923Z,90.70
2018-03-08T23:32:07.379Z,90.70
2018-03-08T23:34:37.972Z,90.70
2018-03-08T23:40:29.758Z,90.70
2018-03-08T23:42:59.462Z,90.80
2018-03-08T23:48:09.694Z,90.70
2018-03-08T23:50:40.236Z,90.70
2018-03-08T23:53:21.377Z,90.90
2018-03-08T23:55:59.961Z,90.90
2018-03-08T23:58:31.139Z,90.80
